sensor_id;sensor_type;location;lat;lon;timestamp;P1;durP1;ratioP1;P2;durP2;ratioP2
43803;SDS011;29430;52.924;-2.388;2022-10-31T00:04:36;11.60;;;1.10;;
43803;SDS011;29430;52.924;-2.388;2022-10-31T00:09:29;18.27;;;1.15;;
43803;SDS011;29430;52.924;-2.388;2022-10-31T00:14:21;12.10;;;0.80;;
43803;SDS011;29430;52.924;-2.388;2022-10-31T00:19:13;16.08;;;1.25;;
43803;SDS011;29430;52.924;-2.388;2022-10-31T00:24:05;13.50;;;0.95;;
43803;SDS011;29430;52.924;-2.388;2022-10-31T00:28:57;14.32;;;1.40;;
43803;SDS011;29430;52.924;-2.388;2022-10-31T00:33:49;13.35;;;0.95;;
43803;SDS011;29430;52.924;-2.388;2022-10-31T00:38:41;12.77;;;1.00;;
43803;SDS011;29430;52.924;-2.388;2022-10-31T00:43:34;16.70;;;1.08;;
43803;SDS011;29430;52.924;-2.388;2022-10-31T00:48:26;14.48;;;1.00;;
43803;SDS011;29430;52.924;-2.388;2022-10-31T00:53:17;13.50;;;0.95;;
43803;SDS011;29430;52.924;-2.388;2022-10-31T00:58:09;12.85;;;1.00;;
43803;SDS011;29430;52.924;-2.388;2022-10-31T01:03:01;17.95;;;1.45;;
43803;SDS011;29430;52.924;-2.388;2022-10-31T01:07:53;19.67;;;1.08;;
43803;SDS011;29430;52.924;-2.388;2022-10-31T01:12:46;20.73;;;1.25;;
43803;SDS011;29430;52.924;-2.388;2022-10-31T01:17:39;24.55;;;1.42;;
43803;SDS011;29430;52.924;-2.388;2022-10-31T01:22:31;18.55;;;1.23;;
43803;SDS011;29430;52.924;-2.388;2022-10-31T01:27:22;12.85;;;1.10;;
43803;SDS011;29430;52.924;-2.388;2022-10-31T01:32:14;19.15;;;2.13;;
43803;SDS011;29430;52.924;-2.388;2022-10-31T01:37:06;19.83;;;1.40;;
43803;SDS011;29430;52.924;-2.388;2022-10-31T01:41:58;16.33;;;1.20;;
43803;SDS011;29430;52.924;-2.388;2022-10-31T01:46:50;14.60;;;1.10;;
43803;SDS011;29430;52.924;-2.388;2022-10-31T01:51:47;12.95;;;1.05;;
43803;SDS011;29430;52.924;-2.388;2022-10-31T01:56:43;13.15;;;1.08;;
43803;SDS011;29430;52.924;-2.388;2022-10-31T02:01:39;20.40;;;1.80;;
43803;SDS011;29430;52.924;-2.388;2022-10-31T02:06:36;12.80;;;1.35;;
43803;SDS011;29430;52.924;-2.388;2022-10-31T02:11:32;20.92;;;1.20;;
43803;SDS011;29430;52.924;-2.388;2022-10-31T02:16:27;16.13;;;1.20;;
43803;SDS011;29430;52.924;-2.388;2022-10-31T02:21:20;16.48;;;1.80;;
43803;SDS011;29430;52.924;-2.388;2022-10-31T02:36:43;16.95;;;1.30;;
43803;SDS011;29430;52.924;-2.388;2022-10-31T02:51:36;12.65;;;0.90;;
43803;SDS011;29430;52.924;-2.388;2022-10-31T02:56:29;14.82;;;1.10;;
43803;SDS011;29430;52.924;-2.388;2022-10-31T03:01:36;15.05;;;0.77;;
43803;SDS011;29430;52.924;-2.388;2022-10-31T03:06:54;20.63;;;1.95;;
43803;SDS011;29430;52.924;-2.388;2022-10-31T03:16:52;14.52;;;1.40;;
43803;SDS011;29430;52.924;-2.388;2022-10-31T03:26:59;14.60;;;0.95;;
43803;SDS011;29430;52.924;-2.388;2022-10-31T03:36:55;15.32;;;1.20;;
43803;SDS011;29430;52.924;-2.388;2022-10-31T03:41:56;18.10;;;1.33;;
43803;SDS011;29430;52.924;-2.388;2022-10-31T03:46:53;15.77;;;0.90;;
43803;SDS011;29430;52.924;-2.388;2022-10-31T03:57:06;20.13;;;1.50;;
43803;SDS011;29430;52.924;-2.388;2022-10-31T04:02:22;20.52;;;1.38;;
43803;SDS011;29430;52.924;-2.388;2022-10-31T04:07:18;20.27;;;1.40;;
43803;SDS011;29430;52.924;-2.388;2022-10-31T04:12:13;17.58;;;1.35;;
43803;SDS011;29430;52.924;-2.388;2022-10-31T04:17:07;20.67;;;1.20;;
43803;SDS011;29430;52.924;-2.388;2022-10-31T04:22:02;14.07;;;1.20;;
43803;SDS011;29430;52.924;-2.388;2022-10-31T04:26:54;18.90;;;1.40;;
43803;SDS011;29430;52.924;-2.388;2022-10-31T04:31:46;17.98;;;1.35;;
43803;SDS011;29430;52.924;-2.388;2022-10-31T04:36:37;17.48;;;1.13;;
43803;SDS011;29430;52.924;-2.388;2022-10-31T04:41:29;23.15;;;1.30;;
43803;SDS011;29430;52.924;-2.388;2022-10-31T04:46:21;19.33;;;1.00;;
43803;SDS011;29430;52.924;-2.388;2022-10-31T04:51:13;23.60;;;1.20;;
43803;SDS011;29430;52.924;-2.388;2022-10-31T04:56:04;10.20;;;1.00;;
43803;SDS011;29430;52.924;-2.388;2022-10-31T05:00:56;12.88;;;0.85;;
43803;SDS011;29430;52.924;-2.388;2022-10-31T05:05:48;11.23;;;0.70;;
43803;SDS011;29430;52.924;-2.388;2022-10-31T05:10:40;10.57;;;0.88;;
43803;SDS011;29430;52.924;-2.388;2022-10-31T05:15:32;16.02;;;0.98;;
43803;SDS011;29430;52.924;-2.388;2022-10-31T05:20:25;18.17;;;1.30;;
43803;SDS011;29430;52.924;-2.388;2022-10-31T05:25:19;12.63;;;0.70;;
43803;SDS011;29430;52.924;-2.388;2022-10-31T05:30:13;11.60;;;0.80;;
43803;SDS011;29430;52.924;-2.388;2022-10-31T05:35:11;9.30;;;0.50;;
43803;SDS011;29430;52.924;-2.388;2022-10-31T05:40:05;15.18;;;1.75;;
43803;SDS011;29430;52.924;-2.388;2022-10-31T05:44:58;16.67;;;1.00;;
43803;SDS011;29430;52.924;-2.388;2022-10-31T05:49:50;18.30;;;1.42;;
43803;SDS011;29430;52.924;-2.388;2022-10-31T05:54:42;14.00;;;0.90;;
43803;SDS011;29430;52.924;-2.388;2022-10-31T05:59:34;22.42;;;1.52;;
43803;SDS011;29430;52.924;-2.388;2022-10-31T06:04:26;15.68;;;0.80;;
43803;SDS011;29430;52.924;-2.388;2022-10-31T06:09:18;11.68;;;0.90;;
43803;SDS011;29430;52.924;-2.388;2022-10-31T06:14:10;13.85;;;0.90;;
43803;SDS011;29430;52.924;-2.388;2022-10-31T06:19:02;14.85;;;0.85;;
43803;SDS011;29430;52.924;-2.388;2022-10-31T06:23:54;10.18;;;0.88;;
43803;SDS011;29430;52.924;-2.388;2022-10-31T06:28:45;14.55;;;1.08;;
43803;SDS011;29430;52.924;-2.388;2022-10-31T06:33:37;22.23;;;1.25;;
43803;SDS011;29430;52.924;-2.388;2022-10-31T06:38:29;6.70;;;0.80;;
43803;SDS011;29430;52.924;-2.388;2022-10-31T06:43:21;17.63;;;1.17;;
43803;SDS011;29430;52.924;-2.388;2022-10-31T06:48:13;15.32;;;0.80;;
43803;SDS011;29430;52.924;-2.388;2022-10-31T06:53:08;11.32;;;0.98;;
43803;SDS011;29430;52.924;-2.388;2022-10-31T06:58:05;12.30;;;1.10;;
43803;SDS011;29430;52.924;-2.388;2022-10-31T07:03:02;12.40;;;0.77;;
43803;SDS011;29430;52.924;-2.388;2022-10-31T07:08:00;23.00;;;1.00;;
43803;SDS011;29430;52.924;-2.388;2022-10-31T07:13:00;14.68;;;1.38;;
43803;SDS011;29430;52.924;-2.388;2022-10-31T07:17:54;15.68;;;1.63;;
43803;SDS011;29430;52.924;-2.388;2022-10-31T07:22:51;11.52;;;0.73;;
43803;SDS011;29430;52.924;-2.388;2022-10-31T07:27:43;18.85;;;0.88;;
43803;SDS011;29430;52.924;-2.388;2022-10-31T07:32:39;15.30;;;0.90;;
43803;SDS011;29430;52.924;-2.388;2022-10-31T07:37:34;16.75;;;0.80;;
43803;SDS011;29430;52.924;-2.388;2022-10-31T07:42:26;17.10;;;1.10;;
43803;SDS011;29430;52.924;-2.388;2022-10-31T07:47:19;10.77;;;1.13;;
43803;SDS011;29430;52.924;-2.388;2022-10-31T07:52:10;15.60;;;1.58;;
43803;SDS011;29430;52.924;-2.388;2022-10-31T07:57:02;15.50;;;1.77;;
43803;SDS011;29430;52.924;-2.388;2022-10-31T08:01:54;12.93;;;1.10;;
43803;SDS011;29430;52.924;-2.388;2022-10-31T08:06:45;16.10;;;1.10;;
43803;SDS011;29430;52.924;-2.388;2022-10-31T08:11:39;20.25;;;0.65;;
43803;SDS011;29430;52.924;-2.388;2022-10-31T08:16:31;16.25;;;0.70;;
43803;SDS011;29430;52.924;-2.388;2022-10-31T08:21:22;12.10;;;0.63;;
43803;SDS011;29430;52.924;-2.388;2022-10-31T08:26:14;12.68;;;0.70;;
43803;SDS011;29430;52.924;-2.388;2022-10-31T08:31:06;12.57;;;0.68;;
43803;SDS011;29430;52.924;-2.388;2022-10-31T08:35:58;9.20;;;0.52;;
43803;SDS011;29430;52.924;-2.388;2022-10-31T08:40:50;10.63;;;0.93;;
43803;SDS011;29430;52.924;-2.388;2022-10-31T08:45:42;11.85;;;0.70;;
43803;SDS011;29430;52.924;-2.388;2022-10-31T08:50:35;12.38;;;0.70;;
43803;SDS011;29430;52.924;-2.388;2022-10-31T08:55:27;6.53;;;0.65;;
43803;SDS011;29430;52.924;-2.388;2022-10-31T09:00:19;7.40;;;0.88;;
43803;SDS011;29430;52.924;-2.388;2022-10-31T09:05:11;10.25;;;0.60;;
43803;SDS011;29430;52.924;-2.388;2022-10-31T09:10:02;11.60;;;1.17;;
43803;SDS011;29430;52.924;-2.388;2022-10-31T09:14:54;11.45;;;0.52;;
43803;SDS011;29430;52.924;-2.388;2022-10-31T09:19:46;14.57;;;0.85;;
43803;SDS011;29430;52.924;-2.388;2022-10-31T09:24:38;10.48;;;0.70;;
43803;SDS011;29430;52.924;-2.388;2022-10-31T09:29:29;10.88;;;0.63;;
43803;SDS011;29430;52.924;-2.388;2022-10-31T09:34:21;10.80;;;0.60;;
43803;SDS011;29430;52.924;-2.388;2022-10-31T09:39:13;9.00;;;1.25;;
43803;SDS011;29430;52.924;-2.388;2022-10-31T09:44:12;10.10;;;1.05;;
43803;SDS011;29430;52.924;-2.388;2022-10-31T09:54:38;10.68;;;0.70;;
43803;SDS011;29430;52.924;-2.388;2022-10-31T09:59:38;8.88;;;0.75;;
43803;SDS011;29430;52.924;-2.388;2022-10-31T10:09:45;14.65;;;0.70;;
43803;SDS011;29430;52.924;-2.388;2022-10-31T10:30:19;15.02;;;0.60;;
43803;SDS011;29430;52.924;-2.388;2022-10-31T10:40:15;8.65;;;0.70;;
43803;SDS011;29430;52.924;-2.388;2022-10-31T10:45:18;9.27;;;0.63;;
43803;SDS011;29430;52.924;-2.388;2022-10-31T10:50:32;8.40;;;0.70;;
43803;SDS011;29430;52.924;-2.388;2022-10-31T11:05:35;8.20;;;0.40;;
43803;SDS011;29430;52.924;-2.388;2022-10-31T11:10:30;10.40;;;0.75;;
43803;SDS011;29430;52.924;-2.388;2022-10-31T11:15:23;7.00;;;0.50;;
43803;SDS011;29430;52.924;-2.388;2022-10-31T11:25:22;10.75;;;0.77;;
43803;SDS011;29430;52.924;-2.388;2022-10-31T11:30:15;7.28;;;0.60;;
43803;SDS011;29430;52.924;-2.388;2022-10-31T11:35:09;6.45;;;0.85;;
43803;SDS011;29430;52.924;-2.388;2022-10-31T11:40:05;9.40;;;0.50;;
43803;SDS011;29430;52.924;-2.388;2022-10-31T11:45:05;8.95;;;0.50;;
43803;SDS011;29430;52.924;-2.388;2022-10-31T11:50:34;7.30;;;0.52;;
43803;SDS011;29430;52.924;-2.388;2022-10-31T12:00:30;5.45;;;0.40;;
43803;SDS011;29430;52.924;-2.388;2022-10-31T12:05:28;11.50;;;1.48;;
43803;SDS011;29430;52.924;-2.388;2022-10-31T12:10:26;8.02;;;0.63;;
43803;SDS011;29430;52.924;-2.388;2022-10-31T12:30:40;6.97;;;0.52;;
43803;SDS011;29430;52.924;-2.388;2022-10-31T12:36:42;6.07;;;0.50;;
43803;SDS011;29430;52.924;-2.388;2022-10-31T12:46:21;8.43;;;0.57;;
43803;SDS011;29430;52.924;-2.388;2022-10-31T12:56:28;9.57;;;0.63;;
43803;SDS011;29430;52.924;-2.388;2022-10-31T13:01:30;5.95;;;0.63;;
43803;SDS011;29430;52.924;-2.388;2022-10-31T13:06:39;5.23;;;0.40;;
43803;SDS011;29430;52.924;-2.388;2022-10-31T13:11:41;7.30;;;0.50;;
43803;SDS011;29430;52.924;-2.388;2022-10-31T13:16:38;7.43;;;0.65;;
43803;SDS011;29430;52.924;-2.388;2022-10-31T13:21:35;7.63;;;0.43;;
43803;SDS011;29430;52.924;-2.388;2022-10-31T13:26:37;7.25;;;0.60;;
43803;SDS011;29430;52.924;-2.388;2022-10-31T13:31:33;9.48;;;0.90;;
43803;SDS011;29430;52.924;-2.388;2022-10-31T13:41:32;5.55;;;0.40;;
43803;SDS011;29430;52.924;-2.388;2022-10-31T13:46:36;8.23;;;0.47;;
43803;SDS011;29430;52.924;-2.388;2022-10-31T13:51:31;9.07;;;0.60;;
43803;SDS011;29430;52.924;-2.388;2022-10-31T13:56:32;3.83;;;0.55;;
43803;SDS011;29430;52.924;-2.388;2022-10-31T14:01:25;5.70;;;0.90;;
43803;SDS011;29430;52.924;-2.388;2022-10-31T14:06:20;7.07;;;0.60;;
43803;SDS011;29430;52.924;-2.388;2022-10-31T14:11:24;7.65;;;0.40;;
43803;SDS011;29430;52.924;-2.388;2022-10-31T14:16:27;15.75;;;2.08;;
43803;SDS011;29430;52.924;-2.388;2022-10-31T14:46:52;8.57;;;0.60;;
43803;SDS011;29430;52.924;-2.388;2022-10-31T14:51:53;9.88;;;0.50;;
43803;SDS011;29430;52.924;-2.388;2022-10-31T14:56:50;6.07;;;0.60;;
43803;SDS011;29430;52.924;-2.388;2022-10-31T15:01:55;6.28;;;0.60;;
43803;SDS011;29430;52.924;-2.388;2022-10-31T15:07:02;8.65;;;0.70;;
43803;SDS011;29430;52.924;-2.388;2022-10-31T15:12:14;5.55;;;1.00;;
43803;SDS011;29430;52.924;-2.388;2022-10-31T15:17:15;8.80;;;0.73;;
43803;SDS011;29430;52.924;-2.388;2022-10-31T15:22:07;4.43;;;0.50;;
43803;SDS011;29430;52.924;-2.388;2022-10-31T15:27:05;5.43;;;0.43;;
43803;SDS011;29430;52.924;-2.388;2022-10-31T15:32:17;4.90;;;0.40;;
43803;SDS011;29430;52.924;-2.388;2022-10-31T15:37:19;4.32;;;0.35;;
43803;SDS011;29430;52.924;-2.388;2022-10-31T15:47:18;4.75;;;0.47;;
43803;SDS011;29430;52.924;-2.388;2022-10-31T15:52:17;5.05;;;0.50;;
43803;SDS011;29430;52.924;-2.388;2022-10-31T15:57:16;3.85;;;0.43;;
43803;SDS011;29430;52.924;-2.388;2022-10-31T16:02:11;4.22;;;0.32;;
43803;SDS011;29430;52.924;-2.388;2022-10-31T16:07:14;4.35;;;0.73;;
43803;SDS011;29430;52.924;-2.388;2022-10-31T16:12:14;5.07;;;0.30;;
43803;SDS011;29430;52.924;-2.388;2022-10-31T16:17:13;8.73;;;0.50;;
43803;SDS011;29430;52.924;-2.388;2022-10-31T16:22:08;6.35;;;0.52;;
43803;SDS011;29430;52.924;-2.388;2022-10-31T16:27:04;5.07;;;0.40;;
43803;SDS011;29430;52.924;-2.388;2022-10-31T16:31:58;5.28;;;0.43;;
43803;SDS011;29430;52.924;-2.388;2022-10-31T16:36:50;3.25;;;0.30;;
43803;SDS011;29430;52.924;-2.388;2022-10-31T16:41:42;4.28;;;0.40;;
43803;SDS011;29430;52.924;-2.388;2022-10-31T16:46:36;2.80;;;0.40;;
43803;SDS011;29430;52.924;-2.388;2022-10-31T16:51:29;9.52;;;0.52;;
43803;SDS011;29430;52.924;-2.388;2022-10-31T16:56:26;6.65;;;0.50;;
43803;SDS011;29430;52.924;-2.388;2022-10-31T17:01:21;5.82;;;0.80;;
43803;SDS011;29430;52.924;-2.388;2022-10-31T17:06:13;6.22;;;0.80;;
43803;SDS011;29430;52.924;-2.388;2022-10-31T17:11:05;6.05;;;0.80;;
43803;SDS011;29430;52.924;-2.388;2022-10-31T17:16:05;2.53;;;0.47;;
43803;SDS011;29430;52.924;-2.388;2022-10-31T17:20:57;5.45;;;0.50;;
43803;SDS011;29430;52.924;-2.388;2022-10-31T17:25:50;6.25;;;0.80;;
43803;SDS011;29430;52.924;-2.388;2022-10-31T17:30:42;7.10;;;0.60;;
43803;SDS011;29430;52.924;-2.388;2022-10-31T17:35:35;5.22;;;0.60;;
43803;SDS011;29430;52.924;-2.388;2022-10-31T17:40:26;5.18;;;1.00;;
43803;SDS011;29430;52.924;-2.388;2022-10-31T17:45:18;5.80;;;0.75;;
43803;SDS011;29430;52.924;-2.388;2022-10-31T17:50:11;8.10;;;0.80;;
43803;SDS011;29430;52.924;-2.388;2022-10-31T17:55:03;5.80;;;0.90;;
43803;SDS011;29430;52.924;-2.388;2022-10-31T17:59:55;6.63;;;0.60;;
43803;SDS011;29430;52.924;-2.388;2022-10-31T18:04:46;4.93;;;0.90;;
43803;SDS011;29430;52.924;-2.388;2022-10-31T18:09:38;4.90;;;0.52;;
43803;SDS011;29430;52.924;-2.388;2022-10-31T18:14:30;5.13;;;0.90;;
43803;SDS011;29430;52.924;-2.388;2022-10-31T18:19:22;10.00;;;1.13;;
43803;SDS011;29430;52.924;-2.388;2022-10-31T18:24:14;7.35;;;1.67;;
43803;SDS011;29430;52.924;-2.388;2022-10-31T18:29:06;6.93;;;1.88;;
43803;SDS011;29430;52.924;-2.388;2022-10-31T18:33:58;9.35;;;2.58;;
43803;SDS011;29430;52.924;-2.388;2022-10-31T18:38:50;5.82;;;2.33;;
43803;SDS011;29430;52.924;-2.388;2022-10-31T18:43:42;7.03;;;1.45;;
43803;SDS011;29430;52.924;-2.388;2022-10-31T18:48:34;9.02;;;2.60;;
43803;SDS011;29430;52.924;-2.388;2022-10-31T18:53:27;5.88;;;1.63;;
43803;SDS011;29430;52.924;-2.388;2022-10-31T18:58:18;9.32;;;2.30;;
43803;SDS011;29430;52.924;-2.388;2022-10-31T19:03:10;12.23;;;3.47;;
43803;SDS011;29430;52.924;-2.388;2022-10-31T19:08:02;12.18;;;2.10;;
43803;SDS011;29430;52.924;-2.388;2022-10-31T19:12:54;4.72;;;1.25;;
43803;SDS011;29430;52.924;-2.388;2022-10-31T19:17:46;5.85;;;1.25;;
43803;SDS011;29430;52.924;-2.388;2022-10-31T19:22:38;9.95;;;3.97;;
43803;SDS011;29430;52.924;-2.388;2022-10-31T19:27:30;7.15;;;1.17;;
43803;SDS011;29430;52.924;-2.388;2022-10-31T19:32:22;5.57;;;1.00;;
43803;SDS011;29430;52.924;-2.388;2022-10-31T19:37:13;8.43;;;1.20;;
43803;SDS011;29430;52.924;-2.388;2022-10-31T19:42:05;3.97;;;1.30;;
43803;SDS011;29430;52.924;-2.388;2022-10-31T19:46:57;5.40;;;0.85;;
43803;SDS011;29430;52.924;-2.388;2022-10-31T19:51:49;7.97;;;0.80;;
43803;SDS011;29430;52.924;-2.388;2022-10-31T19:56:41;4.57;;;0.75;;
43803;SDS011;29430;52.924;-2.388;2022-10-31T20:01:32;5.53;;;0.70;;
43803;SDS011;29430;52.924;-2.388;2022-10-31T20:06:25;4.78;;;1.02;;
43803;SDS011;29430;52.924;-2.388;2022-10-31T20:11:19;3.55;;;0.80;;
43803;SDS011;29430;52.924;-2.388;2022-10-31T20:16:12;4.40;;;1.27;;
43803;SDS011;29430;52.924;-2.388;2022-10-31T20:21:09;6.78;;;1.80;;
43803;SDS011;29430;52.924;-2.388;2022-10-31T20:26:03;5.72;;;1.77;;
43803;SDS011;29430;52.924;-2.388;2022-10-31T20:30:55;10.07;;;2.55;;
43803;SDS011;29430;52.924;-2.388;2022-10-31T20:35:47;4.50;;;2.08;;
43803;SDS011;29430;52.924;-2.388;2022-10-31T20:40:39;4.80;;;1.98;;
43803;SDS011;29430;52.924;-2.388;2022-10-31T20:45:31;4.53;;;2.17;;
43803;SDS011;29430;52.924;-2.388;2022-10-31T20:50:23;5.95;;;3.20;;
43803;SDS011;29430;52.924;-2.388;2022-10-31T20:55:16;8.65;;;3.65;;
43803;SDS011;29430;52.924;-2.388;2022-10-31T21:00:08;5.60;;;4.07;;
43803;SDS011;29430;52.924;-2.388;2022-10-31T21:05:04;7.63;;;4.90;;
43803;SDS011;29430;52.924;-2.388;2022-10-31T21:09:58;10.25;;;6.13;;
43803;SDS011;29430;52.924;-2.388;2022-10-31T21:14:50;8.07;;;5.43;;
43803;SDS011;29430;52.924;-2.388;2022-10-31T21:19:41;8.10;;;5.97;;
43803;SDS011;29430;52.924;-2.388;2022-10-31T21:24:33;8.48;;;6.40;;
43803;SDS011;29430;52.924;-2.388;2022-10-31T21:29:25;8.75;;;7.32;;
43803;SDS011;29430;52.924;-2.388;2022-10-31T21:34:17;10.60;;;7.63;;
43803;SDS011;29430;52.924;-2.388;2022-10-31T21:39:08;13.30;;;7.75;;
43803;SDS011;29430;52.924;-2.388;2022-10-31T21:44:00;10.48;;;8.20;;
43803;SDS011;29430;52.924;-2.388;2022-10-31T21:48:53;15.02;;;8.90;;
43803;SDS011;29430;52.924;-2.388;2022-10-31T21:53:45;17.63;;;10.82;;
43803;SDS011;29430;52.924;-2.388;2022-10-31T21:58:56;14.35;;;10.15;;
43803;SDS011;29430;52.924;-2.388;2022-10-31T22:03:48;14.85;;;11.55;;
43803;SDS011;29430;52.924;-2.388;2022-10-31T22:08:40;15.98;;;12.40;;
43803;SDS011;29430;52.924;-2.388;2022-10-31T22:13:33;16.15;;;12.05;;
43803;SDS011;29430;52.924;-2.388;2022-10-31T22:18:26;21.35;;;13.57;;
43803;SDS011;29430;52.924;-2.388;2022-10-31T22:23:18;17.35;;;12.15;;
43803;SDS011;29430;52.924;-2.388;2022-10-31T22:28:10;16.70;;;13.35;;
43803;SDS011;29430;52.924;-2.388;2022-10-31T22:33:01;18.70;;;13.52;;
43803;SDS011;29430;52.924;-2.388;2022-10-31T22:37:54;22.45;;;14.02;;
43803;SDS011;29430;52.924;-2.388;2022-10-31T22:42:46;23.02;;;16.20;;
43803;SDS011;29430;52.924;-2.388;2022-10-31T22:47:39;25.15;;;16.50;;
43803;SDS011;29430;52.924;-2.388;2022-10-31T22:52:31;25.17;;;17.15;;
43803;SDS011;29430;52.924;-2.388;2022-10-31T22:57:23;24.67;;;17.40;;
43803;SDS011;29430;52.924;-2.388;2022-10-31T23:02:14;30.75;;;17.48;;
43803;SDS011;29430;52.924;-2.388;2022-10-31T23:07:06;26.92;;;18.02;;
43803;SDS011;29430;52.924;-2.388;2022-10-31T23:12:01;34.80;;;20.23;;
43803;SDS011;29430;52.924;-2.388;2022-10-31T23:17:13;30.17;;;18.67;;
43803;SDS011;29430;52.924;-2.388;2022-10-31T23:22:08;23.42;;;16.00;;
43803;SDS011;29430;52.924;-2.388;2022-10-31T23:27:00;24.63;;;16.95;;
43803;SDS011;29430;52.924;-2.388;2022-10-31T23:31:59;23.40;;;14.98;;
43803;SDS011;29430;52.924;-2.388;2022-10-31T23:36:51;26.17;;;16.85;;
43803;SDS011;29430;52.924;-2.388;2022-10-31T23:41:43;29.02;;;19.33;;
43803;SDS011;29430;52.924;-2.388;2022-10-31T23:46:35;27.80;;;18.25;;
43803;SDS011;29430;52.924;-2.388;2022-10-31T23:51:27;26.92;;;18.13;;
43803;SDS011;29430;52.924;-2.388;2022-10-31T23:56:18;26.77;;;17.20;;
